sensor_id;sensor_type;location;lat;lon;timestamp;P1;durP1;ratioP1;P2;durP2;ratioP2
57443;SDS011;43289;52.962;6.196;2023-07-24T00:02:03;11.35;;;5.93;;
57443;SDS011;43289;52.962;6.196;2023-07-24T00:04:30;10.93;;;6.88;;
57443;SDS011;43289;52.962;6.196;2023-07-24T00:06:56;12.05;;;6.60;;
57443;SDS011;43289;52.962;6.196;2023-07-24T00:09:22;12.95;;;5.97;;
57443;SDS011;43289;52.962;6.196;2023-07-24T00:11:48;11.07;;;5.85;;
57443;SDS011;43289;52.962;6.196;2023-07-24T00:14:14;14.50;;;6.97;;
57443;SDS011;43289;52.962;6.196;2023-07-24T00:16:40;10.93;;;6.82;;
57443;SDS011;43289;52.962;6.196;2023-07-24T00:19:06;11.98;;;6.07;;
57443;SDS011;43289;52.962;6.196;2023-07-24T00:21:32;11.90;;;7.10;;
57443;SDS011;43289;52.962;6.196;2023-07-24T00:23:57;13.75;;;6.60;;
57443;SDS011;43289;52.962;6.196;2023-07-24T00:26:23;11.48;;;7.35;;
57443;SDS011;43289;52.962;6.196;2023-07-24T00:28:49;12.63;;;6.72;;
57443;SDS011;43289;52.962;6.196;2023-07-24T00:31:14;10.77;;;6.70;;
57443;SDS011;43289;52.962;6.196;2023-07-24T00:33:40;15.23;;;7.57;;
57443;SDS011;43289;52.962;6.196;2023-07-24T00:36:05;11.38;;;6.63;;
57443;SDS011;43289;52.962;6.196;2023-07-24T00:38:31;11.85;;;7.10;;
57443;SDS011;43289;52.962;6.196;2023-07-24T00:40:56;12.57;;;7.43;;
57443;SDS011;43289;52.962;6.196;2023-07-24T00:43:23;13.60;;;8.05;;
57443;SDS011;43289;52.962;6.196;2023-07-24T00:45:48;11.82;;;8.15;;
57443;SDS011;43289;52.962;6.196;2023-07-24T00:48:14;10.50;;;7.70;;
57443;SDS011;43289;52.962;6.196;2023-07-24T00:50:40;12.23;;;8.15;;
57443;SDS011;43289;52.962;6.196;2023-07-24T00:53:08;11.23;;;8.32;;
57443;SDS011;43289;52.962;6.196;2023-07-24T00:55:35;15.98;;;9.02;;
57443;SDS011;43289;52.962;6.196;2023-07-24T00:58:00;16.00;;;8.50;;
57443;SDS011;43289;52.962;6.196;2023-07-24T01:00:28;14.77;;;9.80;;
57443;SDS011;43289;52.962;6.196;2023-07-24T01:02:54;12.98;;;8.77;;
57443;SDS011;43289;52.962;6.196;2023-07-24T01:05:21;12.02;;;9.02;;
57443;SDS011;43289;52.962;6.196;2023-07-24T01:07:49;14.88;;;9.93;;
57443;SDS011;43289;52.962;6.196;2023-07-24T01:10:18;14.73;;;10.75;;
57443;SDS011;43289;52.962;6.196;2023-07-24T01:12:45;12.32;;;9.55;;
57443;SDS011;43289;52.962;6.196;2023-07-24T01:18:10;15.00;;;9.57;;
57443;SDS011;43289;52.962;6.196;2023-07-24T01:20:38;13.80;;;10.10;;
57443;SDS011;43289;52.962;6.196;2023-07-24T01:25:57;14.02;;;10.60;;
57443;SDS011;43289;52.962;6.196;2023-07-24T01:28:24;13.88;;;10.68;;
57443;SDS011;43289;52.962;6.196;2023-07-24T01:30:51;12.30;;;9.45;;
57443;SDS011;43289;52.962;6.196;2023-07-24T01:33:16;14.38;;;10.75;;
57443;SDS011;43289;52.962;6.196;2023-07-24T01:35:42;13.35;;;9.93;;
57443;SDS011;43289;52.962;6.196;2023-07-24T01:38:09;13.02;;;10.02;;
57443;SDS011;43289;52.962;6.196;2023-07-24T01:40:39;13.25;;;9.40;;
57443;SDS011;43289;52.962;6.196;2023-07-24T01:43:05;12.63;;;9.75;;
57443;SDS011;43289;52.962;6.196;2023-07-24T01:45:31;19.38;;;10.73;;
57443;SDS011;43289;52.962;6.196;2023-07-24T01:47:57;14.07;;;8.95;;
57443;SDS011;43289;52.962;6.196;2023-07-24T01:50:23;13.07;;;10.48;;
57443;SDS011;43289;52.962;6.196;2023-07-24T01:52:49;12.00;;;8.25;;
57443;SDS011;43289;52.962;6.196;2023-07-24T01:55:14;13.27;;;9.73;;
57443;SDS011;43289;52.962;6.196;2023-07-24T01:57:40;13.27;;;9.15;;
57443;SDS011;43289;52.962;6.196;2023-07-24T02:00:06;14.45;;;10.40;;
57443;SDS011;43289;52.962;6.196;2023-07-24T02:02:32;10.63;;;8.05;;
57443;SDS011;43289;52.962;6.196;2023-07-24T02:04:57;11.63;;;8.43;;
57443;SDS011;43289;52.962;6.196;2023-07-24T02:07:23;11.10;;;8.57;;
57443;SDS011;43289;52.962;6.196;2023-07-24T02:09:49;14.02;;;9.55;;
57443;SDS011;43289;52.962;6.196;2023-07-24T02:12:15;13.88;;;9.05;;
57443;SDS011;43289;52.962;6.196;2023-07-24T02:14:40;11.88;;;8.90;;
57443;SDS011;43289;52.962;6.196;2023-07-24T02:17:06;12.40;;;9.57;;
57443;SDS011;43289;52.962;6.196;2023-07-24T02:19:32;14.43;;;9.00;;
57443;SDS011;43289;52.962;6.196;2023-07-24T02:21:57;12.75;;;7.93;;
57443;SDS011;43289;52.962;6.196;2023-07-24T02:24:23;13.43;;;8.25;;
57443;SDS011;43289;52.962;6.196;2023-07-24T02:26:48;13.25;;;8.88;;
57443;SDS011;43289;52.962;6.196;2023-07-24T02:29:14;13.32;;;8.73;;
57443;SDS011;43289;52.962;6.196;2023-07-24T02:31:40;13.05;;;9.23;;
57443;SDS011;43289;52.962;6.196;2023-07-24T02:34:05;10.32;;;7.32;;
57443;SDS011;43289;52.962;6.196;2023-07-24T02:36:31;11.05;;;7.43;;
57443;SDS011;43289;52.962;6.196;2023-07-24T02:38:57;11.63;;;8.25;;
57443;SDS011;43289;52.962;6.196;2023-07-24T02:41:22;13.65;;;8.70;;
57443;SDS011;43289;52.962;6.196;2023-07-24T02:43:48;12.13;;;8.25;;
57443;SDS011;43289;52.962;6.196;2023-07-24T02:46:13;12.05;;;7.57;;
57443;SDS011;43289;52.962;6.196;2023-07-24T02:48:39;10.48;;;7.63;;
57443;SDS011;43289;52.962;6.196;2023-07-24T02:51:04;11.25;;;8.07;;
57443;SDS011;43289;52.962;6.196;2023-07-24T02:53:30;10.00;;;7.13;;
57443;SDS011;43289;52.962;6.196;2023-07-24T02:55:56;11.48;;;8.30;;
57443;SDS011;43289;52.962;6.196;2023-07-24T02:58:22;11.75;;;9.30;;
57443;SDS011;43289;52.962;6.196;2023-07-24T03:00:48;11.02;;;8.52;;
57443;SDS011;43289;52.962;6.196;2023-07-24T03:03:15;12.98;;;8.48;;
57443;SDS011;43289;52.962;6.196;2023-07-24T03:05:41;15.23;;;7.93;;
57443;SDS011;43289;52.962;6.196;2023-07-24T03:08:06;11.80;;;8.38;;
57443;SDS011;43289;52.962;6.196;2023-07-24T03:10:32;14.65;;;8.88;;
57443;SDS011;43289;52.962;6.196;2023-07-24T03:12:58;11.55;;;7.97;;
57443;SDS011;43289;52.962;6.196;2023-07-24T03:15:24;11.00;;;8.20;;
57443;SDS011;43289;52.962;6.196;2023-07-24T03:17:50;14.80;;;9.65;;
57443;SDS011;43289;52.962;6.196;2023-07-24T03:20:16;12.38;;;9.02;;
57443;SDS011;43289;52.962;6.196;2023-07-24T03:22:43;12.82;;;8.80;;
57443;SDS011;43289;52.962;6.196;2023-07-24T03:25:09;10.65;;;8.50;;
57443;SDS011;43289;52.962;6.196;2023-07-24T03:27:35;10.30;;;8.48;;
57443;SDS011;43289;52.962;6.196;2023-07-24T03:30:01;13.30;;;9.40;;
57443;SDS011;43289;52.962;6.196;2023-07-24T03:32:28;11.75;;;8.65;;
57443;SDS011;43289;52.962;6.196;2023-07-24T03:34:54;13.40;;;9.18;;
57443;SDS011;43289;52.962;6.196;2023-07-24T03:37:19;12.18;;;9.23;;
57443;SDS011;43289;52.962;6.196;2023-07-24T03:39:45;10.98;;;8.32;;
57443;SDS011;43289;52.962;6.196;2023-07-24T03:42:10;13.18;;;9.52;;
57443;SDS011;43289;52.962;6.196;2023-07-24T03:44:39;11.25;;;8.70;;
57443;SDS011;43289;52.962;6.196;2023-07-24T03:47:05;11.73;;;9.05;;
57443;SDS011;43289;52.962;6.196;2023-07-24T03:49:31;13.05;;;9.25;;
57443;SDS011;43289;52.962;6.196;2023-07-24T03:51:57;16.50;;;10.68;;
57443;SDS011;43289;52.962;6.196;2023-07-24T03:54:22;11.90;;;9.32;;
57443;SDS011;43289;52.962;6.196;2023-07-24T03:56:48;14.07;;;9.55;;
57443;SDS011;43289;52.962;6.196;2023-07-24T03:59:13;12.10;;;8.80;;
57443;SDS011;43289;52.962;6.196;2023-07-24T04:01:39;14.93;;;9.68;;
57443;SDS011;43289;52.962;6.196;2023-07-24T04:04:05;11.65;;;9.23;;
57443;SDS011;43289;52.962;6.196;2023-07-24T04:06:30;14.90;;;9.43;;
57443;SDS011;43289;52.962;6.196;2023-07-24T04:08:56;13.48;;;9.85;;
57443;SDS011;43289;52.962;6.196;2023-07-24T04:11:21;13.10;;;9.02;;
57443;SDS011;43289;52.962;6.196;2023-07-24T04:13:47;13.82;;;9.57;;
57443;SDS011;43289;52.962;6.196;2023-07-24T04:16:12;13.82;;;9.60;;
57443;SDS011;43289;52.962;6.196;2023-07-24T04:18:38;12.88;;;9.10;;
57443;SDS011;43289;52.962;6.196;2023-07-24T04:21:04;11.93;;;9.18;;
57443;SDS011;43289;52.962;6.196;2023-07-24T04:23:29;14.35;;;8.90;;
57443;SDS011;43289;52.962;6.196;2023-07-24T04:25:55;11.77;;;9.75;;
57443;SDS011;43289;52.962;6.196;2023-07-24T04:28:20;12.88;;;9.05;;
57443;SDS011;43289;52.962;6.196;2023-07-24T04:30:46;12.43;;;10.27;;
57443;SDS011;43289;52.962;6.196;2023-07-24T04:33:11;13.48;;;9.43;;
57443;SDS011;43289;52.962;6.196;2023-07-24T04:35:37;11.85;;;8.60;;
57443;SDS011;43289;52.962;6.196;2023-07-24T04:38:02;14.40;;;9.23;;
57443;SDS011;43289;52.962;6.196;2023-07-24T04:40:28;14.05;;;9.48;;
57443;SDS011;43289;52.962;6.196;2023-07-24T04:42:53;11.30;;;8.65;;
57443;SDS011;43289;52.962;6.196;2023-07-24T04:45:19;12.18;;;9.10;;
57443;SDS011;43289;52.962;6.196;2023-07-24T04:47:45;11.63;;;9.20;;
57443;SDS011;43289;52.962;6.196;2023-07-24T04:50:11;12.85;;;8.93;;
57443;SDS011;43289;52.962;6.196;2023-07-24T04:52:37;12.73;;;9.13;;
57443;SDS011;43289;52.962;6.196;2023-07-24T04:55:03;10.48;;;8.32;;
57443;SDS011;43289;52.962;6.196;2023-07-24T04:57:29;10.38;;;8.38;;
57443;SDS011;43289;52.962;6.196;2023-07-24T04:59:54;11.43;;;8.27;;
57443;SDS011;43289;52.962;6.196;2023-07-24T05:02:20;13.35;;;9.30;;
57443;SDS011;43289;52.962;6.196;2023-07-24T05:04:46;13.07;;;9.50;;
57443;SDS011;43289;52.962;6.196;2023-07-24T05:07:11;11.85;;;9.25;;
57443;SDS011;43289;52.962;6.196;2023-07-24T05:09:37;15.82;;;9.90;;
57443;SDS011;43289;52.962;6.196;2023-07-24T05:12:02;12.23;;;9.95;;
57443;SDS011;43289;52.962;6.196;2023-07-24T05:14:28;11.10;;;8.55;;
57443;SDS011;43289;52.962;6.196;2023-07-24T05:16:54;14.48;;;9.55;;
57443;SDS011;43289;52.962;6.196;2023-07-24T05:19:19;13.43;;;8.88;;
57443;SDS011;43289;52.962;6.196;2023-07-24T05:21:45;12.10;;;8.30;;
57443;SDS011;43289;52.962;6.196;2023-07-24T05:24:10;11.10;;;8.50;;
57443;SDS011;43289;52.962;6.196;2023-07-24T05:26:36;11.48;;;8.70;;
57443;SDS011;43289;52.962;6.196;2023-07-24T05:29:02;14.43;;;8.90;;
57443;SDS011;43289;52.962;6.196;2023-07-24T05:31:27;11.77;;;8.65;;
57443;SDS011;43289;52.962;6.196;2023-07-24T05:33:53;13.10;;;9.15;;
57443;SDS011;43289;52.962;6.196;2023-07-24T05:36:18;14.63;;;8.95;;
57443;SDS011;43289;52.962;6.196;2023-07-24T05:38:44;12.77;;;8.90;;
57443;SDS011;43289;52.962;6.196;2023-07-24T05:41:09;12.85;;;8.88;;
57443;SDS011;43289;52.962;6.196;2023-07-24T05:43:35;10.75;;;8.85;;
57443;SDS011;43289;52.962;6.196;2023-07-24T05:46:00;12.15;;;9.00;;
57443;SDS011;43289;52.962;6.196;2023-07-24T05:48:26;11.18;;;8.35;;
57443;SDS011;43289;52.962;6.196;2023-07-24T05:50:52;12.23;;;8.40;;
57443;SDS011;43289;52.962;6.196;2023-07-24T05:53:17;16.10;;;10.45;;
57443;SDS011;43289;52.962;6.196;2023-07-24T05:55:43;12.18;;;9.20;;
57443;SDS011;43289;52.962;6.196;2023-07-24T05:58:11;11.85;;;8.98;;
57443;SDS011;43289;52.962;6.196;2023-07-24T06:00:40;12.45;;;8.98;;
57443;SDS011;43289;52.962;6.196;2023-07-24T06:03:06;14.57;;;8.90;;
57443;SDS011;43289;52.962;6.196;2023-07-24T06:05:36;12.68;;;8.90;;
57443;SDS011;43289;52.962;6.196;2023-07-24T06:08:05;11.38;;;8.40;;
57443;SDS011;43289;52.962;6.196;2023-07-24T06:10:41;15.00;;;9.40;;
57443;SDS011;43289;52.962;6.196;2023-07-24T06:13:10;11.70;;;8.20;;
57443;SDS011;43289;52.962;6.196;2023-07-24T06:15:35;12.05;;;8.80;;
57443;SDS011;43289;52.962;6.196;2023-07-24T06:18:01;11.73;;;8.80;;
57443;SDS011;43289;52.962;6.196;2023-07-24T06:20:27;12.10;;;8.95;;
57443;SDS011;43289;52.962;6.196;2023-07-24T06:22:52;12.32;;;8.48;;
57443;SDS011;43289;52.962;6.196;2023-07-24T06:25:18;11.05;;;7.97;;
57443;SDS011;43289;52.962;6.196;2023-07-24T06:27:44;11.55;;;8.55;;
57443;SDS011;43289;52.962;6.196;2023-07-24T06:30:09;14.18;;;9.20;;
57443;SDS011;43289;52.962;6.196;2023-07-24T06:32:35;14.55;;;10.18;;
57443;SDS011;43289;52.962;6.196;2023-07-24T06:35:01;12.25;;;8.35;;
57443;SDS011;43289;52.962;6.196;2023-07-24T06:37:26;12.73;;;8.23;;
57443;SDS011;43289;52.962;6.196;2023-07-24T06:39:52;12.05;;;8.25;;
57443;SDS011;43289;52.962;6.196;2023-07-24T06:42:17;12.27;;;8.68;;
57443;SDS011;43289;52.962;6.196;2023-07-24T06:44:43;15.55;;;8.73;;
57443;SDS011;43289;52.962;6.196;2023-07-24T06:47:09;14.07;;;8.02;;
57443;SDS011;43289;52.962;6.196;2023-07-24T06:49:34;13.38;;;8.32;;
57443;SDS011;43289;52.962;6.196;2023-07-24T06:52:01;13.15;;;8.43;;
57443;SDS011;43289;52.962;6.196;2023-07-24T06:54:27;10.50;;;6.80;;
57443;SDS011;43289;52.962;6.196;2023-07-24T06:56:52;9.88;;;8.15;;
57443;SDS011;43289;52.962;6.196;2023-07-24T06:59:18;13.95;;;7.50;;
57443;SDS011;43289;52.962;6.196;2023-07-24T07:01:43;10.82;;;7.35;;
57443;SDS011;43289;52.962;6.196;2023-07-24T07:04:09;14.45;;;7.80;;
57443;SDS011;43289;52.962;6.196;2023-07-24T07:06:35;12.82;;;7.53;;
57443;SDS011;43289;52.962;6.196;2023-07-24T07:09:00;13.80;;;7.38;;
57443;SDS011;43289;52.962;6.196;2023-07-24T07:11:27;14.90;;;7.63;;
57443;SDS011;43289;52.962;6.196;2023-07-24T07:13:53;12.43;;;7.47;;
57443;SDS011;43289;52.962;6.196;2023-07-24T07:16:18;13.10;;;7.97;;
57443;SDS011;43289;52.962;6.196;2023-07-24T07:18:44;13.45;;;7.75;;
57443;SDS011;43289;52.962;6.196;2023-07-24T07:21:10;11.93;;;7.13;;
57443;SDS011;43289;52.962;6.196;2023-07-24T07:23:35;11.43;;;7.10;;
57443;SDS011;43289;52.962;6.196;2023-07-24T07:26:01;13.68;;;8.00;;
57443;SDS011;43289;52.962;6.196;2023-07-24T07:28:27;12.15;;;7.45;;
57443;SDS011;43289;52.962;6.196;2023-07-24T07:30:53;11.00;;;6.40;;
57443;SDS011;43289;52.962;6.196;2023-07-24T07:33:19;11.05;;;6.63;;
57443;SDS011;43289;52.962;6.196;2023-07-24T07:35:46;14.40;;;8.40;;
57443;SDS011;43289;52.962;6.196;2023-07-24T07:38:13;15.15;;;8.73;;
57443;SDS011;43289;52.962;6.196;2023-07-24T07:40:39;15.60;;;8.25;;
57443;SDS011;43289;52.962;6.196;2023-07-24T07:43:04;15.98;;;7.40;;
57443;SDS011;43289;52.962;6.196;2023-07-24T07:45:32;16.13;;;7.97;;
57443;SDS011;43289;52.962;6.196;2023-07-24T07:47:58;16.67;;;8.40;;
57443;SDS011;43289;52.962;6.196;2023-07-24T07:50:24;14.65;;;7.90;;
57443;SDS011;43289;52.962;6.196;2023-07-24T07:52:50;12.48;;;7.82;;
57443;SDS011;43289;52.962;6.196;2023-07-24T07:55:17;13.18;;;7.25;;
57443;SDS011;43289;52.962;6.196;2023-07-24T07:57:43;13.57;;;8.27;;
57443;SDS011;43289;52.962;6.196;2023-07-24T08:00:09;10.15;;;7.63;;
57443;SDS011;43289;52.962;6.196;2023-07-24T08:02:35;10.85;;;6.47;;
57443;SDS011;43289;52.962;6.196;2023-07-24T08:05:09;11.82;;;7.53;;
57443;SDS011;43289;52.962;6.196;2023-07-24T08:07:36;11.73;;;7.15;;
57443;SDS011;43289;52.962;6.196;2023-07-24T08:10:02;10.20;;;6.15;;
57443;SDS011;43289;52.962;6.196;2023-07-24T08:12:28;14.23;;;7.30;;
57443;SDS011;43289;52.962;6.196;2023-07-24T08:14:54;11.30;;;7.18;;
57443;SDS011;43289;52.962;6.196;2023-07-24T08:17:24;14.00;;;7.82;;
57443;SDS011;43289;52.962;6.196;2023-07-24T08:19:49;12.77;;;7.32;;
57443;SDS011;43289;52.962;6.196;2023-07-24T08:22:15;14.48;;;8.02;;
57443;SDS011;43289;52.962;6.196;2023-07-24T08:24:40;14.10;;;8.50;;
57443;SDS011;43289;52.962;6.196;2023-07-24T08:27:06;19.88;;;10.07;;
57443;SDS011;43289;52.962;6.196;2023-07-24T08:29:32;13.55;;;7.22;;
57443;SDS011;43289;52.962;6.196;2023-07-24T08:31:59;11.93;;;7.18;;
57443;SDS011;43289;52.962;6.196;2023-07-24T08:34:25;12.93;;;7.25;;
57443;SDS011;43289;52.962;6.196;2023-07-24T08:36:51;12.40;;;6.93;;
57443;SDS011;43289;52.962;6.196;2023-07-24T08:39:17;12.38;;;7.57;;
57443;SDS011;43289;52.962;6.196;2023-07-24T08:41:44;11.32;;;7.53;;
57443;SDS011;43289;52.962;6.196;2023-07-24T08:44:10;12.38;;;7.32;;
57443;SDS011;43289;52.962;6.196;2023-07-24T08:46:36;9.13;;;6.05;;
57443;SDS011;43289;52.962;6.196;2023-07-24T08:49:03;14.65;;;7.90;;
57443;SDS011;43289;52.962;6.196;2023-07-24T08:51:30;12.20;;;7.13;;
57443;SDS011;43289;52.962;6.196;2023-07-24T08:54:00;14.35;;;7.93;;
57443;SDS011;43289;52.962;6.196;2023-07-24T08:56:27;12.50;;;7.18;;
57443;SDS011;43289;52.962;6.196;2023-07-24T08:58:53;11.75;;;6.72;;
57443;SDS011;43289;52.962;6.196;2023-07-24T09:01:19;12.77;;;7.55;;
57443;SDS011;43289;52.962;6.196;2023-07-24T09:03:46;13.77;;;7.00;;
57443;SDS011;43289;52.962;6.196;2023-07-24T09:06:11;13.27;;;6.38;;
57443;SDS011;43289;52.962;6.196;2023-07-24T09:08:38;13.13;;;6.60;;
57443;SDS011;43289;52.962;6.196;2023-07-24T09:11:05;10.75;;;6.13;;
57443;SDS011;43289;52.962;6.196;2023-07-24T09:13:32;13.35;;;6.60;;
57443;SDS011;43289;52.962;6.196;2023-07-24T09:16:00;15.13;;;6.25;;
57443;SDS011;43289;52.962;6.196;2023-07-24T09:18:25;10.43;;;6.43;;
57443;SDS011;43289;52.962;6.196;2023-07-24T09:20:51;9.98;;;6.40;;
57443;SDS011;43289;52.962;6.196;2023-07-24T09:23:25;13.02;;;6.28;;
57443;SDS011;43289;52.962;6.196;2023-07-24T09:25:55;11.40;;;5.95;;
57443;SDS011;43289;52.962;6.196;2023-07-24T09:28:20;12.35;;;6.45;;
57443;SDS011;43289;52.962;6.196;2023-07-24T09:30:53;13.15;;;6.60;;
57443;SDS011;43289;52.962;6.196;2023-07-24T09:33:34;9.75;;;6.00;;
57443;SDS011;43289;52.962;6.196;2023-07-24T09:36:04;11.02;;;6.57;;
57443;SDS011;43289;52.962;6.196;2023-07-24T09:38:32;13.07;;;6.60;;
57443;SDS011;43289;52.962;6.196;2023-07-24T09:41:00;9.52;;;6.40;;
57443;SDS011;43289;52.962;6.196;2023-07-24T09:43:27;9.75;;;5.65;;
57443;SDS011;43289;52.962;6.196;2023-07-24T09:45:54;8.90;;;6.43;;
57443;SDS011;43289;52.962;6.196;2023-07-24T09:48:21;15.68;;;6.53;;
57443;SDS011;43289;52.962;6.196;2023-07-24T09:50:49;11.35;;;6.72;;
57443;SDS011;43289;52.962;6.196;2023-07-24T09:53:32;11.13;;;6.57;;
57443;SDS011;43289;52.962;6.196;2023-07-24T09:56:06;9.82;;;6.45;;
57443;SDS011;43289;52.962;6.196;2023-07-24T09:58:35;11.27;;;6.50;;
57443;SDS011;43289;52.962;6.196;2023-07-24T10:01:04;8.75;;;5.88;;
57443;SDS011;43289;52.962;6.196;2023-07-24T10:03:33;9.80;;;6.22;;
57443;SDS011;43289;52.962;6.196;2023-07-24T10:06:00;9.23;;;5.65;;
57443;SDS011;43289;52.962;6.196;2023-07-24T10:08:26;14.13;;;6.07;;
57443;SDS011;43289;52.962;6.196;2023-07-24T10:10:53;11.10;;;6.78;;
57443;SDS011;43289;52.962;6.196;2023-07-24T10:13:19;10.88;;;6.95;;
57443;SDS011;43289;52.962;6.196;2023-07-24T10:15:47;10.15;;;7.00;;
57443;SDS011;43289;52.962;6.196;2023-07-24T10:18:14;9.40;;;6.05;;
57443;SDS011;43289;52.962;6.196;2023-07-24T10:20:45;11.07;;;6.35;;
57443;SDS011;43289;52.962;6.196;2023-07-24T10:23:15;14.35;;;8.18;;
57443;SDS011;43289;52.962;6.196;2023-07-24T10:25:43;10.57;;;7.20;;
57443;SDS011;43289;52.962;6.196;2023-07-24T10:28:10;10.98;;;6.82;;
57443;SDS011;43289;52.962;6.196;2023-07-24T10:30:38;10.23;;;6.65;;
57443;SDS011;43289;52.962;6.196;2023-07-24T10:33:12;9.90;;;6.35;;
57443;SDS011;43289;52.962;6.196;2023-07-24T10:35:43;9.63;;;5.50;;
57443;SDS011;43289;52.962;6.196;2023-07-24T10:38:13;11.20;;;5.97;;
57443;SDS011;43289;52.962;6.196;2023-07-24T10:40:41;9.23;;;6.20;;
57443;SDS011;43289;52.962;6.196;2023-07-24T10:43:07;10.30;;;6.95;;
57443;SDS011;43289;52.962;6.196;2023-07-24T10:45:47;9.25;;;7.10;;
57443;SDS011;43289;52.962;6.196;2023-07-24T10:48:17;13.23;;;6.68;;
57443;SDS011;43289;52.962;6.196;2023-07-24T10:50:45;11.05;;;6.43;;
57443;SDS011;43289;52.962;6.196;2023-07-24T10:53:14;10.10;;;6.90;;
57443;SDS011;43289;52.962;6.196;2023-07-24T10:55:42;13.40;;;6.43;;
57443;SDS011;43289;52.962;6.196;2023-07-24T10:58:08;8.10;;;6.40;;
57443;SDS011;43289;52.962;6.196;2023-07-24T11:00:34;11.48;;;5.55;;
57443;SDS011;43289;52.962;6.196;2023-07-24T11:03:00;8.65;;;5.30;;
57443;SDS011;43289;52.962;6.196;2023-07-24T11:05:26;11.32;;;5.50;;
57443;SDS011;43289;52.962;6.196;2023-07-24T11:07:52;11.07;;;5.80;;
57443;SDS011;43289;52.962;6.196;2023-07-24T11:10:18;11.23;;;4.95;;
57443;SDS011;43289;52.962;6.196;2023-07-24T11:12:45;7.20;;;5.68;;
57443;SDS011;43289;52.962;6.196;2023-07-24T11:15:14;9.07;;;4.75;;
57443;SDS011;43289;52.962;6.196;2023-07-24T11:17:40;9.07;;;5.85;;
57443;SDS011;43289;52.962;6.196;2023-07-24T11:20:11;10.85;;;5.57;;
57443;SDS011;43289;52.962;6.196;2023-07-24T11:22:41;9.63;;;5.57;;
57443;SDS011;43289;52.962;6.196;2023-07-24T11:25:09;10.18;;;6.05;;
57443;SDS011;43289;52.962;6.196;2023-07-24T11:27:42;12.13;;;5.45;;
57443;SDS011;43289;52.962;6.196;2023-07-24T11:30:09;9.68;;;5.78;;
57443;SDS011;43289;52.962;6.196;2023-07-24T11:32:40;11.68;;;5.25;;
57443;SDS011;43289;52.962;6.196;2023-07-24T11:35:07;9.02;;;5.00;;
57443;SDS011;43289;52.962;6.196;2023-07-24T11:37:34;10.10;;;5.22;;
57443;SDS011;43289;52.962;6.196;2023-07-24T11:40:00;10.35;;;5.75;;
57443;SDS011;43289;52.962;6.196;2023-07-24T11:42:30;11.63;;;5.63;;
57443;SDS011;43289;52.962;6.196;2023-07-24T11:44:55;9.73;;;5.88;;
57443;SDS011;43289;52.962;6.196;2023-07-24T11:47:25;9.90;;;5.75;;
57443;SDS011;43289;52.962;6.196;2023-07-24T11:49:58;8.63;;;5.03;;
57443;SDS011;43289;52.962;6.196;2023-07-24T11:52:37;9.48;;;5.70;;
57443;SDS011;43289;52.962;6.196;2023-07-24T11:55:08;8.82;;;5.75;;
57443;SDS011;43289;52.962;6.196;2023-07-24T11:57:38;10.68;;;6.82;;
57443;SDS011;43289;52.962;6.196;2023-07-24T12:00:04;10.98;;;6.18;;
57443;SDS011;43289;52.962;6.196;2023-07-24T12:02:34;11.40;;;6.03;;
57443;SDS011;43289;52.962;6.196;2023-07-24T12:04:59;10.05;;;5.90;;
57443;SDS011;43289;52.962;6.196;2023-07-24T12:07:34;6.13;;;4.60;;
57443;SDS011;43289;52.962;6.196;2023-07-24T12:10:04;7.22;;;4.53;;
57443;SDS011;43289;52.962;6.196;2023-07-24T12:15:04;9.77;;;5.35;;
57443;SDS011;43289;52.962;6.196;2023-07-24T12:17:30;7.95;;;5.70;;
57443;SDS011;43289;52.962;6.196;2023-07-24T12:19:56;8.93;;;6.75;;
57443;SDS011;43289;52.962;6.196;2023-07-24T12:22:21;8.52;;;6.07;;
57443;SDS011;43289;52.962;6.196;2023-07-24T12:24:47;7.40;;;6.15;;
57443;SDS011;43289;52.962;6.196;2023-07-24T12:27:13;6.80;;;5.18;;
57443;SDS011;43289;52.962;6.196;2023-07-24T12:29:38;11.05;;;5.85;;
57443;SDS011;43289;52.962;6.196;2023-07-24T12:32:04;7.78;;;6.22;;
57443;SDS011;43289;52.962;6.196;2023-07-24T12:34:30;8.38;;;6.63;;
57443;SDS011;43289;52.962;6.196;2023-07-24T12:36:56;8.65;;;7.28;;
57443;SDS011;43289;52.962;6.196;2023-07-24T12:39:22;9.85;;;7.18;;
57443;SDS011;43289;52.962;6.196;2023-07-24T12:41:48;9.30;;;6.63;;
57443;SDS011;43289;52.962;6.196;2023-07-24T12:44:13;8.93;;;6.88;;
57443;SDS011;43289;52.962;6.196;2023-07-24T12:46:40;8.15;;;6.53;;
57443;SDS011;43289;52.962;6.196;2023-07-24T12:49:05;9.15;;;6.78;;
57443;SDS011;43289;52.962;6.196;2023-07-24T12:51:31;10.70;;;7.47;;
57443;SDS011;43289;52.962;6.196;2023-07-24T12:53:56;9.75;;;6.90;;
57443;SDS011;43289;52.962;6.196;2023-07-24T12:56:22;7.70;;;6.63;;
57443;SDS011;43289;52.962;6.196;2023-07-24T12:58:48;10.38;;;7.35;;
57443;SDS011;43289;52.962;6.196;2023-07-24T13:01:14;8.88;;;5.57;;
57443;SDS011;43289;52.962;6.196;2023-07-24T13:03:39;7.70;;;5.80;;
57443;SDS011;43289;52.962;6.196;2023-07-24T13:06:05;9.45;;;6.45;;
57443;SDS011;43289;52.962;6.196;2023-07-24T13:08:30;8.82;;;5.72;;
57443;SDS011;43289;52.962;6.196;2023-07-24T13:10:56;8.60;;;3.80;;
57443;SDS011;43289;52.962;6.196;2023-07-24T13:13:21;5.60;;;3.83;;
57443;SDS011;43289;52.962;6.196;2023-07-24T13:15:47;6.40;;;4.28;;
57443;SDS011;43289;52.962;6.196;2023-07-24T13:18:14;10.55;;;5.00;;
57443;SDS011;43289;52.962;6.196;2023-07-24T13:20:41;8.10;;;4.68;;
57443;SDS011;43289;52.962;6.196;2023-07-24T13:23:07;10.95;;;4.05;;
57443;SDS011;43289;52.962;6.196;2023-07-24T13:25:33;5.55;;;3.05;;
57443;SDS011;43289;52.962;6.196;2023-07-24T13:27:59;6.65;;;3.95;;
57443;SDS011;43289;52.962;6.196;2023-07-24T13:30:25;7.10;;;3.05;;
57443;SDS011;43289;52.962;6.196;2023-07-24T13:32:51;6.22;;;3.75;;
57443;SDS011;43289;52.962;6.196;2023-07-24T13:35:16;9.18;;;3.05;;
57443;SDS011;43289;52.962;6.196;2023-07-24T13:37:42;4.05;;;2.55;;
57443;SDS011;43289;52.962;6.196;2023-07-24T13:40:08;5.35;;;2.70;;
57443;SDS011;43289;52.962;6.196;2023-07-24T13:42:33;4.28;;;2.40;;
57443;SDS011;43289;52.962;6.196;2023-07-24T13:44:59;8.80;;;3.13;;
57443;SDS011;43289;52.962;6.196;2023-07-24T13:47:24;4.55;;;2.30;;
57443;SDS011;43289;52.962;6.196;2023-07-24T13:49:50;5.63;;;3.47;;
57443;SDS011;43289;52.962;6.196;2023-07-24T13:52:16;6.78;;;2.08;;
57443;SDS011;43289;52.962;6.196;2023-07-24T13:54:41;5.90;;;2.33;;
57443;SDS011;43289;52.962;6.196;2023-07-24T13:57:07;6.00;;;2.30;;
57443;SDS011;43289;52.962;6.196;2023-07-24T13:59:34;7.25;;;2.35;;
57443;SDS011;43289;52.962;6.196;2023-07-24T14:02:00;4.28;;;1.88;;
57443;SDS011;43289;52.962;6.196;2023-07-24T14:04:25;7.75;;;2.72;;
57443;SDS011;43289;52.962;6.196;2023-07-24T14:06:51;5.85;;;2.60;;
57443;SDS011;43289;52.962;6.196;2023-07-24T14:09:16;8.73;;;2.40;;
57443;SDS011;43289;52.962;6.196;2023-07-24T14:11:43;7.75;;;2.28;;
57443;SDS011;43289;52.962;6.196;2023-07-24T14:14:09;4.93;;;2.58;;
57443;SDS011;43289;52.962;6.196;2023-07-24T14:16:34;4.35;;;2.00;;
57443;SDS011;43289;52.962;6.196;2023-07-24T14:19:00;7.60;;;2.30;;
57443;SDS011;43289;52.962;6.196;2023-07-24T14:21:25;5.78;;;2.30;;
57443;SDS011;43289;52.962;6.196;2023-07-24T14:23:51;5.28;;;3.03;;
57443;SDS011;43289;52.962;6.196;2023-07-24T14:26:16;6.78;;;2.17;;
57443;SDS011;43289;52.962;6.196;2023-07-24T14:28:42;5.68;;;2.45;;
57443;SDS011;43289;52.962;6.196;2023-07-24T14:31:07;4.82;;;1.70;;
57443;SDS011;43289;52.962;6.196;2023-07-24T14:33:33;5.75;;;2.35;;
57443;SDS011;43289;52.962;6.196;2023-07-24T14:35:58;6.75;;;2.40;;
57443;SDS011;43289;52.962;6.196;2023-07-24T14:38:25;6.32;;;2.67;;
57443;SDS011;43289;52.962;6.196;2023-07-24T14:40:51;5.07;;;2.22;;
57443;SDS011;43289;52.962;6.196;2023-07-24T14:43:16;6.28;;;2.40;;